sensor_id;sensor_type;location;lat;lon;timestamp;P1;durP1;ratioP1;P2;durP2;ratioP2
51179;SDS011;37243;49.814;8.652;2022-12-26T00:00:46;1.48;;;1.38;;
51179;SDS011;37243;49.814;8.652;2022-12-26T00:03:14;1.52;;;1.42;;
51179;SDS011;37243;49.814;8.652;2022-12-26T00:05:42;1.30;;;1.20;;
51179;SDS011;37243;49.814;8.652;2022-12-26T00:08:11;1.27;;;1.27;;
51179;SDS011;37243;49.814;8.652;2022-12-26T00:10:39;1.42;;;1.40;;
51179;SDS011;37243;49.814;8.652;2022-12-26T00:13:07;1.45;;;1.35;;
51179;SDS011;37243;49.814;8.652;2022-12-26T00:15:41;1.42;;;1.33;;
51179;SDS011;37243;49.814;8.652;2022-12-26T00:18:11;1.27;;;1.27;;
51179;SDS011;37243;49.814;8.652;2022-12-26T00:20:41;1.20;;;1.20;;
51179;SDS011;37243;49.814;8.652;2022-12-26T00:23:09;1.85;;;1.67;;
51179;SDS011;37243;49.814;8.652;2022-12-26T00:25:38;1.25;;;1.25;;
51179;SDS011;37243;49.814;8.652;2022-12-26T00:28:06;1.30;;;1.25;;
51179;SDS011;37243;49.814;8.652;2022-12-26T00:30:36;1.13;;;1.13;;
51179;SDS011;37243;49.814;8.652;2022-12-26T00:33:06;2.00;;;1.08;;
51179;SDS011;37243;49.814;8.652;2022-12-26T00:35:38;1.08;;;1.05;;
51179;SDS011;37243;49.814;8.652;2022-12-26T00:38:06;1.30;;;1.30;;
51179;SDS011;37243;49.814;8.652;2022-12-26T00:40:35;1.30;;;1.30;;
51179;SDS011;37243;49.814;8.652;2022-12-26T00:43:07;1.38;;;1.27;;
51179;SDS011;37243;49.814;8.652;2022-12-26T00:45:35;1.45;;;1.35;;
51179;SDS011;37243;49.814;8.652;2022-12-26T00:48:06;1.13;;;1.08;;
51179;SDS011;37243;49.814;8.652;2022-12-26T00:50:35;1.08;;;1.08;;
51179;SDS011;37243;49.814;8.652;2022-12-26T00:53:03;1.80;;;1.25;;
51179;SDS011;37243;49.814;8.652;2022-12-26T00:55:31;1.50;;;1.40;;
51179;SDS011;37243;49.814;8.652;2022-12-26T00:57:59;1.38;;;1.20;;
51179;SDS011;37243;49.814;8.652;2022-12-26T01:00:28;1.00;;;1.00;;
51179;SDS011;37243;49.814;8.652;2022-12-26T01:02:57;1.10;;;1.10;;
51179;SDS011;37243;49.814;8.652;2022-12-26T01:05:27;1.67;;;1.58;;
51179;SDS011;37243;49.814;8.652;2022-12-26T01:07:56;1.20;;;1.20;;
51179;SDS011;37243;49.814;8.652;2022-12-26T01:10:24;1.20;;;1.20;;
51179;SDS011;37243;49.814;8.652;2022-12-26T01:12:53;1.42;;;1.40;;
51179;SDS011;37243;49.814;8.652;2022-12-26T01:15:21;1.20;;;1.20;;
51179;SDS011;37243;49.814;8.652;2022-12-26T01:17:50;1.50;;;1.40;;
51179;SDS011;37243;49.814;8.652;2022-12-26T01:20:18;1.08;;;1.08;;
51179;SDS011;37243;49.814;8.652;2022-12-26T01:22:49;1.30;;;1.30;;
51179;SDS011;37243;49.814;8.652;2022-12-26T01:25:17;1.25;;;1.25;;
51179;SDS011;37243;49.814;8.652;2022-12-26T01:27:45;1.17;;;1.10;;
51179;SDS011;37243;49.814;8.652;2022-12-26T01:30:15;1.17;;;1.17;;
51179;SDS011;37243;49.814;8.652;2022-12-26T01:32:44;1.45;;;1.40;;
51179;SDS011;37243;49.814;8.652;2022-12-26T01:35:12;1.17;;;1.17;;
51179;SDS011;37243;49.814;8.652;2022-12-26T01:37:41;1.20;;;1.20;;
51179;SDS011;37243;49.814;8.652;2022-12-26T01:40:12;1.05;;;1.00;;
51179;SDS011;37243;49.814;8.652;2022-12-26T01:42:40;1.27;;;1.20;;
51179;SDS011;37243;49.814;8.652;2022-12-26T01:45:16;1.35;;;1.20;;
51179;SDS011;37243;49.814;8.652;2022-12-26T01:47:50;1.02;;;1.02;;
51179;SDS011;37243;49.814;8.652;2022-12-26T01:50:25;1.27;;;1.27;;
51179;SDS011;37243;49.814;8.652;2022-12-26T01:52:58;1.13;;;1.13;;
51179;SDS011;37243;49.814;8.652;2022-12-26T01:55:32;1.30;;;1.25;;
51179;SDS011;37243;49.814;8.652;2022-12-26T01:58:01;1.40;;;1.30;;
51179;SDS011;37243;49.814;8.652;2022-12-26T02:00:33;1.17;;;1.00;;
51179;SDS011;37243;49.814;8.652;2022-12-26T02:03:05;1.73;;;1.10;;
51179;SDS011;37243;49.814;8.652;2022-12-26T02:05:48;1.30;;;1.20;;
51179;SDS011;37243;49.814;8.652;2022-12-26T02:08:17;1.00;;;1.00;;
51179;SDS011;37243;49.814;8.652;2022-12-26T02:10:53;1.20;;;1.20;;
51179;SDS011;37243;49.814;8.652;2022-12-26T02:13:25;1.33;;;1.33;;
51179;SDS011;37243;49.814;8.652;2022-12-26T02:15:55;1.10;;;1.10;;
51179;SDS011;37243;49.814;8.652;2022-12-26T02:18:23;0.98;;;0.98;;
51179;SDS011;37243;49.814;8.652;2022-12-26T02:20:54;1.17;;;1.17;;
51179;SDS011;37243;49.814;8.652;2022-12-26T02:29:33;1.00;;;1.00;;
51179;SDS011;37243;49.814;8.652;2022-12-26T02:32:24;1.20;;;1.20;;
51179;SDS011;37243;49.814;8.652;2022-12-26T02:35:03;1.00;;;1.00;;
51179;SDS011;37243;49.814;8.652;2022-12-26T02:37:42;1.20;;;1.20;;
51179;SDS011;37243;49.814;8.652;2022-12-26T02:40:33;1.38;;;1.27;;
51179;SDS011;37243;49.814;8.652;2022-12-26T02:43:15;1.30;;;1.30;;
51179;SDS011;37243;49.814;8.652;2022-12-26T02:45:49;1.98;;;1.27;;
51179;SDS011;37243;49.814;8.652;2022-12-26T02:48:44;1.25;;;1.15;;
51179;SDS011;37243;49.814;8.652;2022-12-26T02:51:24;1.00;;;1.00;;
51179;SDS011;37243;49.814;8.652;2022-12-26T02:54:17;1.40;;;1.30;;
51179;SDS011;37243;49.814;8.652;2022-12-26T02:57:02;1.00;;;1.00;;
51179;SDS011;37243;49.814;8.652;2022-12-26T02:59:46;1.20;;;1.20;;
51179;SDS011;37243;49.814;8.652;2022-12-26T03:02:34;1.05;;;1.05;;
51179;SDS011;37243;49.814;8.652;2022-12-26T03:05:20;1.00;;;1.00;;
51179;SDS011;37243;49.814;8.652;2022-12-26T03:08:08;1.30;;;1.20;;
51179;SDS011;37243;49.814;8.652;2022-12-26T03:10:54;1.00;;;1.00;;
51179;SDS011;37243;49.814;8.652;2022-12-26T03:13:37;1.00;;;1.00;;
51179;SDS011;37243;49.814;8.652;2022-12-26T03:16:08;1.58;;;1.20;;
51179;SDS011;37243;49.814;8.652;2022-12-26T03:18:51;1.08;;;0.98;;
51179;SDS011;37243;49.814;8.652;2022-12-26T03:21:26;1.10;;;1.10;;
51179;SDS011;37243;49.814;8.652;2022-12-26T03:24:00;1.05;;;1.05;;
51179;SDS011;37243;49.814;8.652;2022-12-26T03:26:29;1.10;;;1.10;;
51179;SDS011;37243;49.814;8.652;2022-12-26T03:29:07;1.10;;;1.10;;
51179;SDS011;37243;49.814;8.652;2022-12-26T03:31:49;1.02;;;1.02;;
51179;SDS011;37243;49.814;8.652;2022-12-26T03:34:18;1.02;;;1.02;;
51179;SDS011;37243;49.814;8.652;2022-12-26T03:36:54;1.00;;;1.00;;
51179;SDS011;37243;49.814;8.652;2022-12-26T03:39:39;1.02;;;1.02;;
51179;SDS011;37243;49.814;8.652;2022-12-26T03:42:31;1.30;;;1.20;;
51179;SDS011;37243;49.814;8.652;2022-12-26T03:45:19;0.90;;;0.90;;
51179;SDS011;37243;49.814;8.652;2022-12-26T03:48:09;1.00;;;1.00;;
51179;SDS011;37243;49.814;8.652;2022-12-26T03:50:58;0.98;;;0.98;;
51179;SDS011;37243;49.814;8.652;2022-12-26T03:54:04;1.58;;;1.27;;
51179;SDS011;37243;49.814;8.652;2022-12-26T03:56:50;0.88;;;0.88;;
51179;SDS011;37243;49.814;8.652;2022-12-26T03:59:39;0.98;;;0.98;;
51179;SDS011;37243;49.814;8.652;2022-12-26T04:02:24;1.10;;;1.10;;
51179;SDS011;37243;49.814;8.652;2022-12-26T04:05:08;1.17;;;1.17;;
51179;SDS011;37243;49.814;8.652;2022-12-26T04:07:53;0.90;;;0.90;;
51179;SDS011;37243;49.814;8.652;2022-12-26T04:10:41;1.15;;;1.15;;
51179;SDS011;37243;49.814;8.652;2022-12-26T04:13:29;0.88;;;0.88;;
51179;SDS011;37243;49.814;8.652;2022-12-26T04:16:28;1.40;;;1.35;;
51179;SDS011;37243;49.814;8.652;2022-12-26T04:19:30;0.90;;;0.90;;
51179;SDS011;37243;49.814;8.652;2022-12-26T04:22:11;1.20;;;1.20;;
51179;SDS011;37243;49.814;8.652;2022-12-26T04:24:58;1.10;;;1.10;;
51179;SDS011;37243;49.814;8.652;2022-12-26T04:27:48;1.10;;;1.10;;
51179;SDS011;37243;49.814;8.652;2022-12-26T04:30:29;1.23;;;1.13;;
51179;SDS011;37243;49.814;8.652;2022-12-26T04:33:18;1.02;;;1.02;;
51179;SDS011;37243;49.814;8.652;2022-12-26T04:36:04;1.08;;;1.08;;
51179;SDS011;37243;49.814;8.652;2022-12-26T04:38:49;0.93;;;0.93;;
51179;SDS011;37243;49.814;8.652;2022-12-26T04:41:35;2.08;;;1.20;;
51179;SDS011;37243;49.814;8.652;2022-12-26T04:44:20;1.20;;;1.20;;
51179;SDS011;37243;49.814;8.652;2022-12-26T04:46:51;1.00;;;1.00;;
51179;SDS011;37243;49.814;8.652;2022-12-26T04:49:22;1.20;;;1.10;;
51179;SDS011;37243;49.814;8.652;2022-12-26T04:52:05;1.23;;;1.23;;
51179;SDS011;37243;49.814;8.652;2022-12-26T04:54:35;1.00;;;1.00;;
51179;SDS011;37243;49.814;8.652;2022-12-26T04:57:04;1.00;;;1.00;;
51179;SDS011;37243;49.814;8.652;2022-12-26T04:59:35;1.20;;;1.10;;
51179;SDS011;37243;49.814;8.652;2022-12-26T05:02:03;1.10;;;1.10;;
51179;SDS011;37243;49.814;8.652;2022-12-26T05:04:53;1.02;;;1.02;;
51179;SDS011;37243;49.814;8.652;2022-12-26T05:07:34;1.05;;;1.05;;
51179;SDS011;37243;49.814;8.652;2022-12-26T05:10:16;1.00;;;1.00;;
51179;SDS011;37243;49.814;8.652;2022-12-26T05:12:46;0.88;;;0.88;;
51179;SDS011;37243;49.814;8.652;2022-12-26T05:15:18;0.90;;;0.90;;
51179;SDS011;37243;49.814;8.652;2022-12-26T05:17:46;1.15;;;1.15;;
51179;SDS011;37243;49.814;8.652;2022-12-26T05:20:27;0.88;;;0.88;;
51179;SDS011;37243;49.814;8.652;2022-12-26T05:23:09;1.00;;;1.00;;
51179;SDS011;37243;49.814;8.652;2022-12-26T05:25:56;1.13;;;1.13;;
51179;SDS011;37243;49.814;8.652;2022-12-26T05:28:37;0.90;;;0.90;;
51179;SDS011;37243;49.814;8.652;2022-12-26T05:31:14;1.25;;;1.17;;
51179;SDS011;37243;49.814;8.652;2022-12-26T05:33:44;1.23;;;1.13;;
51179;SDS011;37243;49.814;8.652;2022-12-26T05:36:26;1.05;;;1.05;;
51179;SDS011;37243;49.814;8.652;2022-12-26T05:38:57;1.00;;;1.00;;
51179;SDS011;37243;49.814;8.652;2022-12-26T05:41:26;0.90;;;0.90;;
51179;SDS011;37243;49.814;8.652;2022-12-26T05:43:54;0.93;;;0.93;;
51179;SDS011;37243;49.814;8.652;2022-12-26T05:46:25;1.52;;;1.42;;
51179;SDS011;37243;49.814;8.652;2022-12-26T05:48:54;1.05;;;1.05;;
51179;SDS011;37243;49.814;8.652;2022-12-26T05:51:22;1.27;;;1.27;;
51179;SDS011;37243;49.814;8.652;2022-12-26T05:53:50;0.88;;;0.88;;
51179;SDS011;37243;49.814;8.652;2022-12-26T05:56:19;0.90;;;0.90;;
51179;SDS011;37243;49.814;8.652;2022-12-26T05:58:52;1.10;;;1.10;;
51179;SDS011;37243;49.814;8.652;2022-12-26T06:01:21;1.10;;;1.10;;
51179;SDS011;37243;49.814;8.652;2022-12-26T06:03:54;1.10;;;1.10;;
51179;SDS011;37243;49.814;8.652;2022-12-26T06:06:24;1.10;;;1.10;;
51179;SDS011;37243;49.814;8.652;2022-12-26T06:08:53;1.33;;;1.23;;
51179;SDS011;37243;49.814;8.652;2022-12-26T06:11:23;0.90;;;0.90;;
51179;SDS011;37243;49.814;8.652;2022-12-26T06:13:52;1.15;;;1.15;;
51179;SDS011;37243;49.814;8.652;2022-12-26T06:16:21;1.52;;;1.27;;
51179;SDS011;37243;49.814;8.652;2022-12-26T06:18:52;0.98;;;0.98;;
51179;SDS011;37243;49.814;8.652;2022-12-26T06:21:22;0.77;;;0.77;;
51179;SDS011;37243;49.814;8.652;2022-12-26T06:23:50;1.00;;;1.00;;
51179;SDS011;37243;49.814;8.652;2022-12-26T06:26:19;1.15;;;1.05;;
51179;SDS011;37243;49.814;8.652;2022-12-26T06:28:47;0.90;;;0.90;;
51179;SDS011;37243;49.814;8.652;2022-12-26T06:31:16;1.08;;;1.08;;
51179;SDS011;37243;49.814;8.652;2022-12-26T06:33:46;0.93;;;0.93;;
51179;SDS011;37243;49.814;8.652;2022-12-26T06:36:18;1.02;;;1.02;;
51179;SDS011;37243;49.814;8.652;2022-12-26T06:38:48;0.95;;;0.95;;
51179;SDS011;37243;49.814;8.652;2022-12-26T06:41:17;0.82;;;0.82;;
51179;SDS011;37243;49.814;8.652;2022-12-26T06:43:48;0.90;;;0.90;;
51179;SDS011;37243;49.814;8.652;2022-12-26T06:46:17;0.93;;;0.93;;
51179;SDS011;37243;49.814;8.652;2022-12-26T06:48:48;1.00;;;1.00;;
51179;SDS011;37243;49.814;8.652;2022-12-26T06:51:20;0.80;;;0.80;;
51179;SDS011;37243;49.814;8.652;2022-12-26T06:53:49;0.90;;;0.90;;
51179;SDS011;37243;49.814;8.652;2022-12-26T06:56:23;0.80;;;0.80;;
51179;SDS011;37243;49.814;8.652;2022-12-26T06:58:54;1.55;;;1.10;;
51179;SDS011;37243;49.814;8.652;2022-12-26T07:01:23;1.13;;;1.00;;
51179;SDS011;37243;49.814;8.652;2022-12-26T07:03:53;0.90;;;0.90;;
51179;SDS011;37243;49.814;8.652;2022-12-26T07:06:26;0.80;;;0.80;;
51179;SDS011;37243;49.814;8.652;2022-12-26T07:08:56;0.93;;;0.93;;
51179;SDS011;37243;49.814;8.652;2022-12-26T07:11:28;0.98;;;0.98;;
51179;SDS011;37243;49.814;8.652;2022-12-26T07:13:57;2.00;;;1.00;;
51179;SDS011;37243;49.814;8.652;2022-12-26T07:16:26;0.80;;;0.80;;
51179;SDS011;37243;49.814;8.652;2022-12-26T07:18:55;1.15;;;1.15;;
51179;SDS011;37243;49.814;8.652;2022-12-26T07:21:27;0.80;;;0.80;;
51179;SDS011;37243;49.814;8.652;2022-12-26T07:23:55;0.80;;;0.80;;
51179;SDS011;37243;49.814;8.652;2022-12-26T07:26:24;0.75;;;0.75;;
51179;SDS011;37243;49.814;8.652;2022-12-26T07:28:52;1.92;;;1.10;;
51179;SDS011;37243;49.814;8.652;2022-12-26T07:31:22;1.10;;;1.00;;
51179;SDS011;37243;49.814;8.652;2022-12-26T07:33:52;1.00;;;1.00;;
51179;SDS011;37243;49.814;8.652;2022-12-26T07:36:22;0.98;;;0.95;;
51179;SDS011;37243;49.814;8.652;2022-12-26T07:38:53;0.98;;;0.98;;
51179;SDS011;37243;49.814;8.652;2022-12-26T07:41:22;1.00;;;1.00;;
51179;SDS011;37243;49.814;8.652;2022-12-26T07:44:03;1.35;;;1.27;;
51179;SDS011;37243;49.814;8.652;2022-12-26T07:46:31;1.35;;;1.10;;
51179;SDS011;37243;49.814;8.652;2022-12-26T07:48:59;1.00;;;1.00;;
51179;SDS011;37243;49.814;8.652;2022-12-26T07:51:28;3.08;;;1.08;;
51179;SDS011;37243;49.814;8.652;2022-12-26T07:53:59;1.10;;;0.90;;
51179;SDS011;37243;49.814;8.652;2022-12-26T07:56:27;0.93;;;0.93;;
51179;SDS011;37243;49.814;8.652;2022-12-26T07:58:55;1.95;;;0.80;;
51179;SDS011;37243;49.814;8.652;2022-12-26T08:01:23;1.33;;;1.23;;
51179;SDS011;37243;49.814;8.652;2022-12-26T08:03:52;0.70;;;0.70;;
51179;SDS011;37243;49.814;8.652;2022-12-26T08:06:20;2.35;;;0.95;;
51179;SDS011;37243;49.814;8.652;2022-12-26T08:08:49;0.93;;;0.93;;
51179;SDS011;37243;49.814;8.652;2022-12-26T08:11:20;1.10;;;1.05;;
51179;SDS011;37243;49.814;8.652;2022-12-26T08:13:50;0.90;;;0.90;;
51179;SDS011;37243;49.814;8.652;2022-12-26T08:16:19;0.70;;;0.70;;
51179;SDS011;37243;49.814;8.652;2022-12-26T08:18:47;1.00;;;1.00;;
51179;SDS011;37243;49.814;8.652;2022-12-26T08:21:16;0.80;;;0.80;;
51179;SDS011;37243;49.814;8.652;2022-12-26T08:23:45;1.05;;;0.88;;
51179;SDS011;37243;49.814;8.652;2022-12-26T08:26:14;0.80;;;0.80;;
51179;SDS011;37243;49.814;8.652;2022-12-26T08:28:49;1.42;;;1.33;;
51179;SDS011;37243;49.814;8.652;2022-12-26T08:31:18;1.33;;;1.00;;
51179;SDS011;37243;49.814;8.652;2022-12-26T08:33:49;0.80;;;0.80;;
51179;SDS011;37243;49.814;8.652;2022-12-26T08:36:23;1.05;;;0.95;;
51179;SDS011;37243;49.814;8.652;2022-12-26T08:38:52;1.05;;;1.05;;
51179;SDS011;37243;49.814;8.652;2022-12-26T08:41:21;0.85;;;0.80;;
51179;SDS011;37243;49.814;8.652;2022-12-26T08:43:52;1.40;;;0.93;;
51179;SDS011;37243;49.814;8.652;2022-12-26T08:46:21;2.13;;;1.13;;
51179;SDS011;37243;49.814;8.652;2022-12-26T08:48:53;0.90;;;0.90;;
51179;SDS011;37243;49.814;8.652;2022-12-26T08:51:22;3.58;;;1.17;;
51179;SDS011;37243;49.814;8.652;2022-12-26T08:53:52;1.58;;;1.10;;
51179;SDS011;37243;49.814;8.652;2022-12-26T08:56:24;2.33;;;1.00;;
51179;SDS011;37243;49.814;8.652;2022-12-26T08:58:55;0.95;;;0.90;;
51179;SDS011;37243;49.814;8.652;2022-12-26T09:01:25;2.38;;;1.20;;
51179;SDS011;37243;49.814;8.652;2022-12-26T09:03:54;0.90;;;0.90;;
51179;SDS011;37243;49.814;8.652;2022-12-26T09:06:25;1.45;;;1.35;;
51179;SDS011;37243;49.814;8.652;2022-12-26T09:08:53;1.20;;;1.10;;
51179;SDS011;37243;49.814;8.652;2022-12-26T09:11:22;1.65;;;1.17;;
51179;SDS011;37243;49.814;8.652;2022-12-26T09:13:57;1.65;;;1.00;;
51179;SDS011;37243;49.814;8.652;2022-12-26T09:16:27;1.95;;;1.00;;
51179;SDS011;37243;49.814;8.652;2022-12-26T09:18:58;1.20;;;1.10;;
51179;SDS011;37243;49.814;8.652;2022-12-26T09:21:28;1.40;;;1.30;;
51179;SDS011;37243;49.814;8.652;2022-12-26T09:23:57;1.13;;;0.95;;
51179;SDS011;37243;49.814;8.652;2022-12-26T09:26:27;3.20;;;1.30;;
51179;SDS011;37243;49.814;8.652;2022-12-26T09:28:58;1.63;;;1.48;;
51179;SDS011;37243;49.814;8.652;2022-12-26T09:31:27;1.42;;;1.05;;
51179;SDS011;37243;49.814;8.652;2022-12-26T09:33:57;1.48;;;1.30;;
51179;SDS011;37243;49.814;8.652;2022-12-26T09:36:29;1.27;;;1.17;;
51179;SDS011;37243;49.814;8.652;2022-12-26T09:38:59;1.25;;;1.15;;
51179;SDS011;37243;49.814;8.652;2022-12-26T09:41:31;1.92;;;1.10;;
51179;SDS011;37243;49.814;8.652;2022-12-26T09:44:15;2.05;;;1.20;;
51179;SDS011;37243;49.814;8.652;2022-12-26T09:46:52;2.15;;;1.40;;
51179;SDS011;37243;49.814;8.652;2022-12-26T09:49:32;1.80;;;1.15;;
51179;SDS011;37243;49.814;8.652;2022-12-26T09:52:04;1.52;;;1.35;;
51179;SDS011;37243;49.814;8.652;2022-12-26T09:54:39;2.03;;;1.25;;
51179;SDS011;37243;49.814;8.652;2022-12-26T09:57:11;1.85;;;1.45;;
51179;SDS011;37243;49.814;8.652;2022-12-26T09:59:47;2.45;;;1.30;;
51179;SDS011;37243;49.814;8.652;2022-12-26T10:02:20;1.63;;;1.45;;
51179;SDS011;37243;49.814;8.652;2022-12-26T10:04:50;2.60;;;1.30;;
51179;SDS011;37243;49.814;8.652;2022-12-26T10:07:20;1.58;;;1.48;;
51179;SDS011;37243;49.814;8.652;2022-12-26T10:09:57;3.22;;;1.10;;
51179;SDS011;37243;49.814;8.652;2022-12-26T10:12:35;1.55;;;1.45;;
51179;SDS011;37243;49.814;8.652;2022-12-26T10:15:14;1.23;;;1.13;;
51179;SDS011;37243;49.814;8.652;2022-12-26T10:17:55;2.30;;;1.10;;
51179;SDS011;37243;49.814;8.652;2022-12-26T10:20:34;1.60;;;1.50;;
51179;SDS011;37243;49.814;8.652;2022-12-26T10:23:16;3.20;;;1.33;;
51179;SDS011;37243;49.814;8.652;2022-12-26T10:25:52;4.53;;;1.70;;
51179;SDS011;37243;49.814;8.652;2022-12-26T10:28:27;4.30;;;1.65;;
51179;SDS011;37243;49.814;8.652;2022-12-26T10:31:03;2.13;;;1.23;;
51179;SDS011;37243;49.814;8.652;2022-12-26T10:33:36;5.10;;;1.70;;
51179;SDS011;37243;49.814;8.652;2022-12-26T10:36:11;16.77;;;2.38;;
51179;SDS011;37243;49.814;8.652;2022-12-26T10:38:44;4.43;;;1.88;;
51179;SDS011;37243;49.814;8.652;2022-12-26T10:41:17;8.18;;;2.17;;
51179;SDS011;37243;49.814;8.652;2022-12-26T10:43:49;6.57;;;1.90;;
51179;SDS011;37243;49.814;8.652;2022-12-26T10:49:22;4.10;;;2.08;;
51179;SDS011;37243;49.814;8.652;2022-12-26T10:51:53;3.20;;;1.63;;
51179;SDS011;37243;49.814;8.652;2022-12-26T10:54:25;2.95;;;1.90;;
51179;SDS011;37243;49.814;8.652;2022-12-26T10:56:55;5.70;;;1.88;;
51179;SDS011;37243;49.814;8.652;2022-12-26T10:59:28;4.45;;;1.95;;
51179;SDS011;37243;49.814;8.652;2022-12-26T11:02:20;6.28;;;1.85;;
51179;SDS011;37243;49.814;8.652;2022-12-26T11:05:04;6.20;;;2.00;;
51179;SDS011;37243;49.814;8.652;2022-12-26T11:07:36;2.85;;;1.70;;
51179;SDS011;37243;49.814;8.652;2022-12-26T11:10:12;5.82;;;2.10;;
51179;SDS011;37243;49.814;8.652;2022-12-26T11:12:46;3.03;;;1.73;;
51179;SDS011;37243;49.814;8.652;2022-12-26T11:15:17;2.03;;;1.60;;
51179;SDS011;37243;49.814;8.652;2022-12-26T11:17:50;3.42;;;2.25;;
51179;SDS011;37243;49.814;8.652;2022-12-26T11:20:24;2.78;;;2.03;;
51179;SDS011;37243;49.814;8.652;2022-12-26T11:25:50;5.13;;;2.05;;
51179;SDS011;37243;49.814;8.652;2022-12-26T11:28:24;3.78;;;2.20;;
51179;SDS011;37243;49.814;8.652;2022-12-26T11:30:54;2.70;;;1.75;;
51179;SDS011;37243;49.814;8.652;2022-12-26T11:33:25;2.35;;;1.90;;
51179;SDS011;37243;49.814;8.652;2022-12-26T11:36:04;2.17;;;1.98;;
51179;SDS011;37243;49.814;8.652;2022-12-26T11:38:41;2.58;;;2.03;;
51179;SDS011;37243;49.814;8.652;2022-12-26T11:41:15;3.38;;;1.92;;
51179;SDS011;37243;49.814;8.652;2022-12-26T11:46:53;3.05;;;1.85;;
51179;SDS011;37243;49.814;8.652;2022-12-26T11:49:25;3.92;;;2.40;;
51179;SDS011;37243;49.814;8.652;2022-12-26T11:51:59;5.28;;;2.22;;
51179;SDS011;37243;49.814;8.652;2022-12-26T11:54:31;7.13;;;2.45;;
51179;SDS011;37243;49.814;8.652;2022-12-26T11:57:12;3.50;;;2.05;;
51179;SDS011;37243;49.814;8.652;2022-12-26T11:59:44;3.22;;;2.00;;
51179;SDS011;37243;49.814;8.652;2022-12-26T12:02:14;3.70;;;2.20;;
51179;SDS011;37243;49.814;8.652;2022-12-26T12:04:45;5.05;;;2.10;;
51179;SDS011;37243;49.814;8.652;2022-12-26T12:07:22;7.20;;;2.22;;
51179;SDS011;37243;49.814;8.652;2022-12-26T12:10:20;2.90;;;1.95;;
51179;SDS011;37243;49.814;8.652;2022-12-26T12:13:10;3.20;;;2.38;;
51179;SDS011;37243;49.814;8.652;2022-12-26T12:15:45;2.83;;;1.90;;
51179;SDS011;37243;49.814;8.652;2022-12-26T12:18:21;3.67;;;2.30;;
51179;SDS011;37243;49.814;8.652;2022-12-26T12:21:04;3.58;;;2.30;;
51179;SDS011;37243;49.814;8.652;2022-12-26T12:23:46;4.15;;;2.20;;
51179;SDS011;37243;49.814;8.652;2022-12-26T12:26:36;4.35;;;2.40;;
51179;SDS011;37243;49.814;8.652;2022-12-26T12:29:12;4.25;;;2.35;;
51179;SDS011;37243;49.814;8.652;2022-12-26T12:31:52;2.50;;;2.00;;
51179;SDS011;37243;49.814;8.652;2022-12-26T12:34:30;4.15;;;2.25;;
51179;SDS011;37243;49.814;8.652;2022-12-26T12:37:16;4.55;;;2.47;;
51179;SDS011;37243;49.814;8.652;2022-12-26T12:39:58;3.72;;;2.20;;
51179;SDS011;37243;49.814;8.652;2022-12-26T12:42:37;4.53;;;2.75;;
51179;SDS011;37243;49.814;8.652;2022-12-26T12:45:18;1.92;;;1.83;;
51179;SDS011;37243;49.814;8.652;2022-12-26T12:47:54;2.60;;;2.40;;
51179;SDS011;37243;49.814;8.652;2022-12-26T12:50:31;3.15;;;2.17;;
51179;SDS011;37243;49.814;8.652;2022-12-26T12:53:09;2.60;;;2.30;;
51179;SDS011;37243;49.814;8.652;2022-12-26T12:55:54;2.35;;;2.15;;
51179;SDS011;37243;49.814;8.652;2022-12-26T12:58:31;3.47;;;2.28;;
51179;SDS011;37243;49.814;8.652;2022-12-26T13:01:09;2.17;;;1.95;;
51179;SDS011;37243;49.814;8.652;2022-12-26T13:03:44;2.83;;;2.10;;
51179;SDS011;37243;49.814;8.652;2022-12-26T13:06:18;3.80;;;2.20;;
51179;SDS011;37243;49.814;8.652;2022-12-26T13:08:52;4.95;;;2.30;;
51179;SDS011;37243;49.814;8.652;2022-12-26T13:11:28;4.43;;;2.35;;
51179;SDS011;37243;49.814;8.652;2022-12-26T13:14:00;3.20;;;2.40;;
51179;SDS011;37243;49.814;8.652;2022-12-26T13:16:34;2.55;;;2.30;;
51179;SDS011;37243;49.814;8.652;2022-12-26T13:19:09;4.97;;;2.80;;
51179;SDS011;37243;49.814;8.652;2022-12-26T13:21:49;5.88;;;2.15;;
51179;SDS011;37243;49.814;8.652;2022-12-26T13:24:24;5.47;;;2.10;;
51179;SDS011;37243;49.814;8.652;2022-12-26T13:27:03;1.90;;;1.80;;
51179;SDS011;37243;49.814;8.652;2022-12-26T13:29:36;4.50;;;2.22;;
51179;SDS011;37243;49.814;8.652;2022-12-26T13:32:13;6.55;;;2.17;;
51179;SDS011;37243;49.814;8.652;2022-12-26T13:34:44;5.32;;;2.20;;
51179;SDS011;37243;49.814;8.652;2022-12-26T13:40:14;3.90;;;2.08;;
51179;SDS011;37243;49.814;8.652;2022-12-26T13:42:48;3.00;;;2.42;;
51179;SDS011;37243;49.814;8.652;2022-12-26T13:54:21;2.40;;;2.20;;
51179;SDS011;37243;49.814;8.652;2022-12-26T13:56:58;2.58;;;2.10;;
51179;SDS011;37243;49.814;8.652;2022-12-26T13:59:50;2.65;;;2.00;;
51179;SDS011;37243;49.814;8.652;2022-12-26T14:02:42;5.03;;;2.33;;
51179;SDS011;37243;49.814;8.652;2022-12-26T14:05:37;2.42;;;2.20;;
51179;SDS011;37243;49.814;8.652;2022-12-26T14:08:13;2.50;;;2.30;;
51179;SDS011;37243;49.814;8.652;2022-12-26T14:10:52;2.10;;;1.90;;
51179;SDS011;37243;49.814;8.652;2022-12-26T14:13:32;2.58;;;2.10;;
51179;SDS011;37243;49.814;8.652;2022-12-26T14:16:13;1.92;;;1.83;;
51179;SDS011;37243;49.814;8.652;2022-12-26T14:18:47;3.05;;;2.10;;
51179;SDS011;37243;49.814;8.652;2022-12-26T14:21:27;3.53;;;2.10;;
51179;SDS011;37243;49.814;8.652;2022-12-26T14:24:03;3.25;;;2.30;;
51179;SDS011;37243;49.814;8.652;2022-12-26T14:26:39;2.97;;;2.00;;
51179;SDS011;37243;49.814;8.652;2022-12-26T14:29:16;2.08;;;1.70;;
51179;SDS011;37243;49.814;8.652;2022-12-26T14:32:01;3.03;;;1.92;;
51179;SDS011;37243;49.814;8.652;2022-12-26T14:34:44;2.20;;;2.00;;
51179;SDS011;37243;49.814;8.652;2022-12-26T14:37:18;1.75;;;1.65;;
51179;SDS011;37243;49.814;8.652;2022-12-26T14:45:58;1.88;;;1.73;;
51179;SDS011;37243;49.814;8.652;2022-12-26T14:51:44;2.22;;;1.98;;
51179;SDS011;37243;49.814;8.652;2022-12-26T14:54:15;2.30;;;2.10;;
51179;SDS011;37243;49.814;8.652;2022-12-26T15:05:57;2.13;;;1.90;;
51179;SDS011;37243;49.814;8.652;2022-12-26T15:08:45;2.00;;;1.90;;
51179;SDS011;37243;49.814;8.652;2022-12-26T15:17:45;2.33;;;2.10;;
51179;SDS011;37243;49.814;8.652;2022-12-26T15:20:30;1.67;;;1.55;;
51179;SDS011;37243;49.814;8.652;2022-12-26T15:29:23;1.70;;;1.60;;
51179;SDS011;37243;49.814;8.652;2022-12-26T15:32:08;2.13;;;2.03;;
51179;SDS011;37243;49.814;8.652;2022-12-26T15:34:49;2.03;;;1.83;;
51179;SDS011;37243;49.814;8.652;2022-12-26T15:40:21;1.90;;;1.67;;
51179;SDS011;37243;49.814;8.652;2022-12-26T15:42:57;1.98;;;1.67;;
51179;SDS011;37243;49.814;8.652;2022-12-26T15:45:44;2.75;;;1.88;;
51179;SDS011;37243;49.814;8.652;2022-12-26T15:48:21;2.47;;;1.92;;
51179;SDS011;37243;49.814;8.652;2022-12-26T15:50:58;2.75;;;2.20;;
51179;SDS011;37243;49.814;8.652;2022-12-26T15:53:33;2.88;;;1.92;;
51179;SDS011;37243;49.814;8.652;2022-12-26T16:02:38;1.60;;;1.50;;
51179;SDS011;37243;49.814;8.652;2022-12-26T16:11:28;2.72;;;1.90;;
51179;SDS011;37243;49.814;8.652;2022-12-26T16:14:00;1.80;;;1.70;;
51179;SDS011;37243;49.814;8.652;2022-12-26T16:16:31;2.70;;;1.83;;
51179;SDS011;37243;49.814;8.652;2022-12-26T16:19:18;3.05;;;1.55;;
51179;SDS011;37243;49.814;8.652;2022-12-26T16:21:48;3.53;;;1.95;;
51179;SDS011;37243;49.814;8.652;2022-12-26T16:24:31;1.63;;;1.42;;
51179;SDS011;37243;49.814;8.652;2022-12-26T16:27:02;2.20;;;1.70;;
51179;SDS011;37243;49.814;8.652;2022-12-26T16:29:34;1.67;;;1.40;;
51179;SDS011;37243;49.814;8.652;2022-12-26T16:32:13;2.03;;;1.80;;
51179;SDS011;37243;49.814;8.652;2022-12-26T16:34:47;1.67;;;1.58;;
51179;SDS011;37243;49.814;8.652;2022-12-26T16:37:17;1.80;;;1.70;;
51179;SDS011;37243;49.814;8.652;2022-12-26T16:42:42;2.10;;;1.90;;
51179;SDS011;37243;49.814;8.652;2022-12-26T16:45:13;1.58;;;1.48;;
51179;SDS011;37243;49.814;8.652;2022-12-26T16:47:45;2.25;;;2.03;;
51179;SDS011;37243;49.814;8.652;2022-12-26T16:50:20;1.40;;;1.30;;